Time;durP1;ratioP1;P1;durP2;ratioP2;P2;SDS_P1;SDS_P2;PMS_P1;PMS_P2;Temp;Humidity;BMP_temperature;BMP_pressure;BME280_temperature;BME280_humidity;BME280_pressure;Samples;Min_cycle;Max_cycle;Signal;HPM_P1;HPM_P2
2022/09/06 00:02:19;;;;;;;5.43;4.10;;;;;;;;;;5081828;28;20052;-74
2022/09/06 00:04:48;;;;;;;4.72;3.55;;;;;;;;;;5078863;28;20068;-73
2022/09/06 00:07:15;;;;;;;10.05;4.80;;;;;;;;;;5083106;28;20063;-73
2022/09/06 00:09:43;;;;;;;6.28;4.15;;;;;;;;;;5088357;28;20044;-74
2022/09/06 00:12:10;;;;;;;9.13;4.10;;;;;;;;;;5083839;28;20049;-74
2022/09/06 00:14:37;;;;;;;8.27;4.57;;;;;;;;;;5082077;28;20049;-76
2022/09/06 00:17:05;;;;;;;6.85;4.80;;;;;;;;;;5085762;28;20033;-74
2022/09/06 00:19:32;;;;;;;6.57;4.38;;;;;;;;;;5082112;28;20113;-75
2022/09/06 00:21:59;;;;;;;9.57;4.13;;;;;;;;;;5083544;28;20084;-74
2022/09/06 00:24:27;;;;;;;7.22;4.35;;;;;;;;;;5087453;28;20071;-74
2022/09/06 00:26:54;;;;;;;7.97;4.63;;;;;;;;;;5082829;28;20045;-73
2022/09/06 00:29:21;;;;;;;7.25;4.80;;;;;;;;;;5083770;28;20060;-74
2022/09/06 00:31:49;;;;;;;7.32;4.32;;;;;;;;;;5088099;28;20055;-74
2022/09/06 00:34:16;;;;;;;7.97;4.80;;;;;;;;;;5084295;28;20079;-74
2022/09/06 00:36:43;;;;;;;7.57;4.50;;;;;;;;;;5085553;28;20144;-75
2022/09/06 00:39:10;;;;;;;5.78;4.00;;;;;;;;;;5083187;28;20030;-74
2022/09/06 00:41:38;;;;;;;7.00;4.60;;;;;;;;;;5083735;28;20051;-74
2022/09/06 00:44:05;;;;;;;8.77;4.65;;;;;;;;;;5081762;28;20056;-74
2022/09/06 00:46:33;;;;;;;6.63;4.30;;;;;;;;;;5086430;28;20104;-74
2022/09/06 00:49:02;;;;;;;11.95;4.50;;;;;;;;;;5081915;28;20101;-75
2022/09/06 00:51:30;;;;;;;7.75;5.10;;;;;;;;;;5087668;28;20104;-74
2022/09/06 00:53:58;;;;;;;7.10;4.13;;;;;;;;;;5083191;28;20045;-74
2022/09/06 00:56:26;;;;;;;8.02;4.85;;;;;;;;;;5085951;28;20101;-73
2022/09/06 00:58:54;;;;;;;6.72;5.05;;;;;;;;;;5085166;28;20111;-74
2022/09/06 01:01:21;;;;;;;6.80;4.50;;;;;;;;;;5087991;28;20067;-73
2022/09/06 01:03:48;;;;;;;6.82;4.90;;;;;;;;;;5081038;28;20144;-73
2022/09/06 01:06:34;;;;;;;6.97;5.28;;;;;;;;;;5078042;28;20041;-73
2022/09/06 01:09:12;;;;;;;9.43;5.43;;;;;;;;;;5083592;28;20051;-75
2022/09/06 01:11:47;;;;;;;7.05;4.97;;;;;;;;;;5081017;28;20255;-75
2022/09/06 01:14:18;;;;;;;7.78;4.65;;;;;;;;;;5081539;28;20048;-74
2022/09/06 01:16:50;;;;;;;8.90;4.93;;;;;;;;;;5097438;28;20045;-73
2022/09/06 01:19:32;;;;;;;9.23;4.90;;;;;;;;;;5082350;28;20831;-74
2022/09/06 01:22:08;;;;;;;5.60;4.22;;;;;;;;;;5084322;28;20108;-75
2022/09/06 01:24:38;;;;;;;6.38;4.40;;;;;;;;;;5080491;28;20049;-74
2022/09/06 01:27:08;;;;;;;12.82;4.85;;;;;;;;;;5075505;28;20041;-73
2022/09/06 01:29:38;;;;;;;6.50;4.35;;;;;;;;;;5077044;28;20052;-74
2022/09/06 01:32:19;;;;;;;6.82;4.38;;;;;;;;;;5073941;28;20095;-74
2022/09/06 01:35:07;;;;;;;7.13;4.57;;;;;;;;;;5075523;28;20057;-73
2022/09/06 01:37:34;;;;;;;10.73;4.85;;;;;;;;;;5079900;28;20049;-75
2022/09/06 01:40:01;;;;;;;6.70;3.90;;;;;;;;;;5082897;28;20033;-75
2022/09/06 01:42:31;;;;;;;5.97;4.43;;;;;;;;;;5081823;28;20056;-74
2022/09/06 01:45:00;;;;;;;7.10;4.53;;;;;;;;;;5086140;28;20079;-75
2022/09/06 01:47:39;;;;;;;6.47;5.10;;;;;;;;;;5081050;28;20057;-74
2022/09/06 01:50:45;;;;;;;8.98;4.82;;;;;;;;;;5080728;28;20104;-73
2022/09/06 01:53:19;;;;;;;10.07;4.80;;;;;;;;;;5044672;28;20052;-75
2022/09/06 01:55:49;;;;;;;12.55;4.78;;;;;;;;;;5043447;28;20054;-75
2022/09/06 01:58:19;;;;;;;8.77;4.55;;;;;;;;;;5040078;28;20050;-76
2022/09/06 02:01:13;;;;;;;5.65;4.43;;;;;;;;;;5045494;28;20045;-73
2022/09/06 02:03:52;;;;;;;5.00;3.88;;;;;;;;;;5039405;28;20055;-73
2022/09/06 02:06:21;;;;;;;6.70;3.95;;;;;;;;;;5041789;28;20076;-75
2022/09/06 02:09:02;;;;;;;5.80;4.20;;;;;;;;;;5041095;28;20050;-73
2022/09/06 02:11:31;;;;;;;8.13;4.60;;;;;;;;;;5045583;28;20055;-74
2022/09/06 02:14:01;;;;;;;7.50;4.25;;;;;;;;;;5042879;28;20048;-75
2022/09/06 02:16:29;;;;;;;11.32;4.40;;;;;;;;;;5042094;28;20065;-76
2022/09/06 02:18:59;;;;;;;11.50;4.90;;;;;;;;;;5042375;28;20097;-74
2022/09/06 02:21:29;;;;;;;7.47;4.72;;;;;;;;;;5040115;28;20069;-76
2022/09/06 02:23:59;;;;;;;8.25;4.50;;;;;;;;;;5061761;28;20049;-74
2022/09/06 02:26:28;;;;;;;6.82;4.40;;;;;;;;;;5085343;28;20103;-75
2022/09/06 02:28:56;;;;;;;7.57;4.38;;;;;;;;;;5078529;28;20056;-76
2022/09/06 02:31:23;;;;;;;8.23;4.57;;;;;;;;;;5081374;28;20063;-73
2022/09/06 02:33:51;;;;;;;8.00;5.18;;;;;;;;;;5080455;28;20045;-74
2022/09/06 02:36:19;;;;;;;8.52;5.03;;;;;;;;;;5076010;28;21064;-74
2022/09/06 02:38:47;;;;;;;8.57;5.57;;;;;;;;;;5080438;28;20037;-74
2022/09/06 02:41:17;;;;;;;7.13;5.00;;;;;;;;;;5077271;28;20053;-76
2022/09/06 02:43:44;;;;;;;6.80;5.18;;;;;;;;;;5074197;28;20064;-73
2022/09/06 02:46:11;;;;;;;8.68;5.40;;;;;;;;;;5072733;28;20048;-73
2022/09/06 02:48:39;;;;;;;12.10;5.75;;;;;;;;;;5072024;28;20049;-72
2022/09/06 02:51:07;;;;;;;8.88;5.60;;;;;;;;;;5072603;28;20048;-74
2022/09/06 02:53:34;;;;;;;8.80;6.30;;;;;;;;;;5072469;28;20045;-75
2022/09/06 02:56:01;;;;;;;8.98;6.60;;;;;;;;;;5076080;28;20053;-75
2022/09/06 02:58:29;;;;;;;9.35;7.05;;;;;;;;;;5075931;28;20525;-74
2022/09/06 03:00:56;;;;;;;9.75;6.00;;;;;;;;;;5069639;28;20180;-75
2022/09/06 03:03:23;;;;;;;11.63;7.20;;;;;;;;;;5072568;28;20123;-75
2022/09/06 03:05:51;;;;;;;10.13;7.00;;;;;;;;;;5070484;28;20055;-76
2022/09/06 03:08:20;;;;;;;12.32;7.70;;;;;;;;;;5073905;28;20045;-74
2022/09/06 03:10:50;;;;;;;13.35;7.47;;;;;;;;;;5067131;28;20102;-74
2022/09/06 03:13:18;;;;;;;12.07;6.63;;;;;;;;;;5077831;28;20049;-75
2022/09/06 03:15:50;;;;;;;17.08;8.00;;;;;;;;;;5074482;28;20127;-75
2022/09/06 03:18:17;;;;;;;11.90;7.80;;;;;;;;;;5071792;28;20053;-74
2022/09/06 03:20:44;;;;;;;16.98;8.75;;;;;;;;;;5076338;28;20080;-77
2022/09/06 03:23:12;;;;;;;10.18;6.90;;;;;;;;;;5079182;28;20044;-74
2022/09/06 03:25:39;;;;;;;11.48;8.02;;;;;;;;;;5071913;28;20055;-74
2022/09/06 03:28:06;;;;;;;14.90;7.97;;;;;;;;;;5071655;28;20054;-74
2022/09/06 03:30:33;;;;;;;18.85;8.75;;;;;;;;;;5078254;28;21867;-74
2022/09/06 03:33:00;;;;;;;14.15;8.85;;;;;;;;;;5078901;28;20526;-74
2022/09/06 03:35:29;;;;;;;17.45;8.23;;;;;;;;;;5067494;28;20076;-74
2022/09/06 03:37:56;;;;;;;11.57;7.90;;;;;;;;;;5073481;28;20084;-74
2022/09/06 03:40:23;;;;;;;12.73;7.95;;;;;;;;;;5069406;28;20114;-75
2022/09/06 03:42:50;;;;;;;15.18;8.75;;;;;;;;;;5072412;28;20056;-75
2022/09/06 03:45:17;;;;;;;17.20;8.32;;;;;;;;;;5076044;28;20084;-73
2022/09/06 03:47:44;;;;;;;13.57;8.75;;;;;;;;;;5075091;28;20055;-76
2022/09/06 03:50:12;;;;;;;16.58;9.27;;;;;;;;;;5080835;28;20037;-74
2022/09/06 03:52:39;;;;;;;11.80;7.57;;;;;;;;;;5076299;28;20152;-75
2022/09/06 03:55:06;;;;;;;12.80;8.45;;;;;;;;;;5070239;28;20312;-76
2022/09/06 03:57:33;;;;;;;10.45;7.20;;;;;;;;;;5075459;28;20045;-75
2022/09/06 04:00:00;;;;;;;13.55;7.90;;;;;;;;;;5075646;28;20059;-74
2022/09/06 04:02:28;;;;;;;11.32;6.82;;;;;;;;;;5076370;28;20137;-75
2022/09/06 04:04:55;;;;;;;8.98;6.75;;;;;;;;;;5078861;28;20149;-74
2022/09/06 04:07:22;;;;;;;10.50;7.22;;;;;;;;;;5079498;28;20771;-74
2022/09/06 04:09:49;;;;;;;8.88;7.13;;;;;;;;;;5076244;28;20140;-73
2022/09/06 04:12:16;;;;;;;9.20;6.75;;;;;;;;;;5074021;28;20055;-74
2022/09/06 04:14:43;;;;;;;12.98;7.60;;;;;;;;;;5077835;28;20044;-73
2022/09/06 04:17:11;;;;;;;10.80;7.07;;;;;;;;;;5078400;28;20053;-74
2022/09/06 04:19:38;;;;;;;8.63;6.53;;;;;;;;;;5074416;28;20038;-74
2022/09/06 04:22:05;;;;;;;12.70;7.85;;;;;;;;;;5079910;28;20848;-74
2022/09/06 04:24:33;;;;;;;10.45;7.32;;;;;;;;;;5077576;28;20117;-75
2022/09/06 04:27:00;;;;;;;10.32;6.78;;;;;;;;;;5077604;28;20052;-74
2022/09/06 04:29:27;;;;;;;11.48;6.97;;;;;;;;;;5080418;28;20053;-73
2022/09/06 04:31:54;;;;;;;12.88;7.45;;;;;;;;;;5078949;28;20044;-73
2022/09/06 04:34:22;;;;;;;10.82;7.22;;;;;;;;;;5074779;28;20109;-74
2022/09/06 04:36:49;;;;;;;10.25;6.82;;;;;;;;;;5076007;28;20055;-75
2022/09/06 04:39:16;;;;;;;8.13;5.93;;;;;;;;;;5072695;28;20052;-75
2022/09/06 04:41:43;;;;;;;12.50;7.60;;;;;;;;;;5079060;28;20075;-78
2022/09/06 04:44:10;;;;;;;12.52;6.95;;;;;;;;;;5078229;28;20049;-76
2022/09/06 04:46:40;;;;;;;12.23;8.02;;;;;;;;;;5074571;28;20809;-75
2022/09/06 04:49:07;;;;;;;11.52;7.22;;;;;;;;;;5078116;28;20100;-76
2022/09/06 04:51:36;;;;;;;10.27;6.95;;;;;;;;;;5071455;28;20045;-75
2022/09/06 04:54:03;;;;;;;15.57;8.07;;;;;;;;;;5073575;28;20049;-75
2022/09/06 04:56:30;;;;;;;11.23;6.90;;;;;;;;;;5076264;28;20047;-76
2022/09/06 04:58:58;;;;;;;11.00;7.10;;;;;;;;;;5074541;28;20049;-76
2022/09/06 05:01:25;;;;;;;11.07;7.22;;;;;;;;;;5069613;28;20080;-75
2022/09/06 05:03:52;;;;;;;9.73;6.38;;;;;;;;;;5081590;28;20052;-75
2022/09/06 05:06:23;;;;;;;10.43;6.60;;;;;;;;;;5071920;28;20081;-74
2022/09/06 05:08:51;;;;;;;11.15;6.70;;;;;;;;;;5072745;28;20787;-75
2022/09/06 05:11:19;;;;;;;12.55;7.28;;;;;;;;;;5073128;28;20051;-76
2022/09/06 05:13:46;;;;;;;12.13;7.95;;;;;;;;;;5074583;28;20742;-76
2022/09/06 05:16:13;;;;;;;13.98;7.80;;;;;;;;;;5075334;28;20097;-74
2022/09/06 05:18:41;;;;;;;11.90;7.65;;;;;;;;;;5076866;28;20037;-75
2022/09/06 05:21:08;;;;;;;10.77;7.70;;;;;;;;;;5073846;28;20535;-75
2022/09/06 05:23:35;;;;;;;19.02;8.13;;;;;;;;;;5080695;28;20101;-75
2022/09/06 05:26:03;;;;;;;13.55;8.15;;;;;;;;;;5074468;28;20045;-75
2022/09/06 05:28:30;;;;;;;14.05;8.25;;;;;;;;;;5075104;28;20040;-75
2022/09/06 05:31:11;;;;;;;13.00;8.65;;;;;;;;;;5070939;28;20053;-74
2022/09/06 05:33:38;;;;;;;12.93;7.78;;;;;;;;;;5071137;28;20052;-75
2022/09/06 05:36:06;;;;;;;12.93;8.38;;;;;;;;;;5072472;28;20088;-75
2022/09/06 05:38:33;;;;;;;12.52;8.35;;;;;;;;;;5064001;28;1041495;-76
2022/09/06 05:41:00;;;;;;;11.25;7.85;;;;;;;;;;5096779;28;20052;-74
2022/09/06 05:43:27;;;;;;;11.15;6.45;;;;;;;;;;5096991;28;20053;-74
2022/09/06 05:45:54;;;;;;;12.30;7.63;;;;;;;;;;5104065;28;20053;-75
2022/09/06 05:48:22;;;;;;;13.18;8.90;;;;;;;;;;5102132;28;20083;-77
2022/09/06 05:50:59;;;;;;;11.15;8.70;;;;;;;;;;5102238;28;20855;-75
2022/09/06 05:53:26;;;;;;;12.20;7.28;;;;;;;;;;5079118;28;20064;-76
2022/09/06 05:55:53;;;;;;;9.75;7.15;;;;;;;;;;5093199;28;20048;-74
2022/09/06 05:58:20;;;;;;;11.48;8.40;;;;;;;;;;5092414;28;20052;-77
2022/09/06 06:00:47;;;;;;;12.60;9.15;;;;;;;;;;5098340;28;20430;-74
2022/09/06 06:03:15;;;;;;;11.88;9.15;;;;;;;;;;5100166;28;20757;-76
2022/09/06 06:05:46;;;;;;;10.38;7.90;;;;;;;;;;5094576;28;20043;-77
2022/09/06 06:08:13;;;;;;;12.27;9.10;;;;;;;;;;5097624;28;20725;-74
2022/09/06 06:10:40;;;;;;;15.57;9.15;;;;;;;;;;5098970;28;20055;-76
2022/09/06 06:13:07;;;;;;;9.85;7.22;;;;;;;;;;5096823;28;20032;-75
2022/09/06 06:15:34;;;;;;;18.25;9.07;;;;;;;;;;5094559;28;20048;-75
2022/09/06 06:18:02;;;;;;;18.13;9.13;;;;;;;;;;5096641;28;20045;-77
2022/09/06 06:20:29;;;;;;;12.48;8.68;;;;;;;;;;5103048;28;20056;-74
2022/09/06 06:22:57;;;;;;;13.95;9.38;;;;;;;;;;5099010;28;20041;-76
2022/09/06 06:25:25;;;;;;;13.00;9.25;;;;;;;;;;5092407;28;20032;-77
2022/09/06 06:27:52;;;;;;;16.00;8.95;;;;;;;;;;5091507;28;20057;-75
2022/09/06 06:30:20;;;;;;;14.10;8.90;;;;;;;;;;5091797;28;20048;-76
2022/09/06 06:32:47;;;;;;;16.10;9.95;;;;;;;;;;5092371;28;20135;-75
2022/09/06 06:35:14;;;;;;;13.30;10.30;;;;;;;;;;5088395;28;20061;-75
2022/09/06 06:37:41;;;;;;;16.95;9.88;;;;;;;;;;5095721;28;20029;-76
2022/09/06 06:40:09;;;;;;;13.70;10.27;;;;;;;;;;5090631;28;20139;-75
2022/09/06 06:42:36;;;;;;;16.00;10.30;;;;;;;;;;5090410;28;20941;-76
2022/09/06 06:45:03;;;;;;;19.40;10.95;;;;;;;;;;5095164;28;20040;-74
2022/09/06 06:47:30;;;;;;;24.88;10.85;;;;;;;;;;5092441;28;20051;-75
2022/09/06 06:49:57;;;;;;;15.73;10.40;;;;;;;;;;5088181;28;20059;-74
2022/09/06 06:52:25;;;;;;;15.25;10.30;;;;;;;;;;5094559;28;20047;-75
2022/09/06 06:54:53;;;;;;;19.35;11.15;;;;;;;;;;5092561;28;20048;-75
2022/09/06 06:57:20;;;;;;;19.67;10.73;;;;;;;;;;5089596;28;20148;-76
2022/09/06 06:59:47;;;;;;;16.55;11.00;;;;;;;;;;5086750;28;20053;-74
2022/09/06 07:02:16;;;;;;;15.02;10.70;;;;;;;;;;5089873;28;20056;-75
2022/09/06 07:04:43;;;;;;;16.58;10.55;;;;;;;;;;5090141;28;20028;-76
2022/09/06 07:07:10;;;;;;;13.98;10.52;;;;;;;;;;5093370;28;21351;-76
2022/09/06 07:09:57;;;;;;;18.38;11.00;;;;;;;;;;5090424;28;20063;-74
2022/09/06 07:12:44;;;;;;;19.35;12.07;;;;;;;;;;5096578;28;20060;-75
2022/09/06 07:15:12;;;;;;;15.18;10.80;;;;;;;;;;5092701;28;20148;-73
2022/09/06 07:17:40;;;;;;;18.15;11.15;;;;;;;;;;5092476;28;20052;-74
2022/09/06 07:20:08;;;;;;;16.60;11.70;;;;;;;;;;5095972;28;20075;-75
2022/09/06 07:22:39;;;;;;;17.25;11.30;;;;;;;;;;5090827;28;20163;-74
2022/09/06 07:25:07;;;;;;;17.85;11.85;;;;;;;;;;5095522;28;20208;-75
2022/09/06 07:27:34;;;;;;;17.75;10.88;;;;;;;;;;5089815;28;20047;-75
2022/09/06 07:30:18;;;;;;;14.70;10.27;;;;;;;;;;5094486;28;20897;-76
2022/09/06 07:32:45;;;;;;;16.42;11.13;;;;;;;;;;5076561;28;21001;-74
2022/09/06 07:35:12;;;;;;;13.80;10.90;;;;;;;;;;5088956;28;20162;-74
2022/09/06 07:37:39;;;;;;;14.23;10.43;;;;;;;;;;5098415;28;20099;-74
2022/09/06 07:40:08;;;;;;;14.60;10.75;;;;;;;;;;5096011;28;20052;-74
2022/09/06 07:42:35;;;;;;;16.77;9.88;;;;;;;;;;5089463;28;20060;-74
2022/09/06 07:45:03;;;;;;;19.48;9.75;;;;;;;;;;5094340;28;21420;-74
2022/09/06 07:47:30;;;;;;;12.45;9.00;;;;;;;;;;5096265;28;20056;-75
2022/09/06 07:50:17;;;;;;;14.60;9.90;;;;;;;;;;5093696;28;20871;-74
2022/09/06 07:53:05;;;;;;;14.85;9.45;;;;;;;;;;5088801;28;20813;-75
2022/09/06 07:55:37;;;;;;;14.57;10.15;;;;;;;;;;5091640;28;20112;-74
2022/09/06 07:58:04;;;;;;;13.02;9.63;;;;;;;;;;5088010;28;20797;-75
2022/09/06 08:00:32;;;;;;;14.60;8.52;;;;;;;;;;5089996;28;20049;-75
2022/09/06 08:02:59;;;;;;;13.00;9.15;;;;;;;;;;5092868;28;20048;-74
2022/09/06 08:05:26;;;;;;;13.35;9.18;;;;;;;;;;5094337;28;20045;-74
2022/09/06 08:08:14;;;;;;;16.55;9.68;;;;;;;;;;5086960;28;20041;-74
2022/09/06 08:11:01;;;;;;;12.80;8.98;;;;;;;;;;5092573;28;20108;-75
2022/09/06 08:13:28;;;;;;;17.95;9.43;;;;;;;;;;5094882;28;20048;-74
2022/09/06 08:15:59;;;;;;;11.93;8.45;;;;;;;;;;5094004;28;20051;-73
2022/09/06 08:18:27;;;;;;;14.77;8.80;;;;;;;;;;5089050;28;20045;-74
2022/09/06 08:20:54;;;;;;;10.35;8.60;;;;;;;;;;5091511;28;20052;-74
2022/09/06 08:23:21;;;;;;;11.57;7.75;;;;;;;;;;5096085;28;20110;-74
2022/09/06 08:25:56;;;;;;;12.13;7.95;;;;;;;;;;5093315;28;20048;-74
2022/09/06 08:28:23;;;;;;;10.88;6.40;;;;;;;;;;5096846;28;20140;-73
2022/09/06 08:30:54;;;;;;;10.85;6.90;;;;;;;;;;5090247;28;20052;-73
2022/09/06 08:33:24;;;;;;;11.20;6.78;;;;;;;;;;5097140;28;20064;-75
2022/09/06 08:35:55;;;;;;;10.88;6.55;;;;;;;;;;5096218;28;20040;-73
2022/09/06 08:38:23;;;;;;;11.82;6.78;;;;;;;;;;5094001;28;20049;-74
2022/09/06 08:40:52;;;;;;;9.32;6.55;;;;;;;;;;5093578;28;20048;-76
2022/09/06 08:43:20;;;;;;;11.63;6.65;;;;;;;;;;5094600;28;20040;-73
2022/09/06 08:45:53;;;;;;;9.77;7.00;;;;;;;;;;5095074;28;20961;-73
2022/09/06 08:48:23;;;;;;;12.20;6.88;;;;;;;;;;5096089;28;20958;-73
2022/09/06 08:50:56;;;;;;;8.95;6.55;;;;;;;;;;5091953;28;20052;-75
2022/09/06 08:53:23;;;;;;;13.77;7.50;;;;;;;;;;5097918;28;20049;-73
2022/09/06 08:56:04;;;;;;;8.57;6.60;;;;;;;;;;5087840;28;20049;-75
2022/09/06 08:58:44;;;;;;;8.98;6.68;;;;;;;;;;5096610;28;20092;-72
2022/09/06 09:01:13;;;;;;;10.80;6.40;;;;;;;;;;5095598;28;20059;-75
2022/09/06 09:03:43;;;;;;;8.73;5.88;;;;;;;;;;5098149;28;20040;-73
2022/09/06 09:06:10;;;;;;;8.98;6.18;;;;;;;;;;5080858;28;20041;-74
2022/09/06 09:08:38;;;;;;;11.38;6.75;;;;;;;;;;5094571;28;20049;-74
2022/09/06 09:11:07;;;;;;;8.07;6.28;;;;;;;;;;5093678;28;20637;-73
2022/09/06 09:13:34;;;;;;;9.43;5.93;;;;;;;;;;5084020;28;20048;-72
2022/09/06 09:16:02;;;;;;;10.90;6.30;;;;;;;;;;5085318;28;20749;-73
2022/09/06 09:18:32;;;;;;;8.65;6.28;;;;;;;;;;5090209;28;20102;-74
2022/09/06 09:20:59;;;;;;;8.02;6.00;;;;;;;;;;5086978;28;20057;-73
2022/09/06 09:23:28;;;;;;;9.55;6.00;;;;;;;;;;5089454;28;20045;-74
2022/09/06 09:25:59;;;;;;;11.93;5.50;;;;;;;;;;5087301;28;20056;-74
2022/09/06 09:28:26;;;;;;;9.60;6.03;;;;;;;;;;5084147;28;21664;-74
2022/09/06 09:30:55;;;;;;;10.88;6.13;;;;;;;;;;5081961;28;20045;-74
2022/09/06 09:33:24;;;;;;;8.52;6.35;;;;;;;;;;5086750;28;20057;-75
2022/09/06 09:35:51;;;;;;;10.30;6.57;;;;;;;;;;5086339;28;20045;-74
2022/09/06 09:38:34;;;;;;;10.75;7.40;;;;;;;;;;5085238;28;20045;-75
2022/09/06 09:41:03;;;;;;;10.95;7.03;;;;;;;;;;5040609;28;20054;-75
2022/09/06 09:43:32;;;;;;;11.88;6.63;;;;;;;;;;5042908;28;20053;-74
2022/09/06 09:46:18;;;;;;;9.65;5.90;;;;;;;;;;5044555;28;20060;-73
2022/09/06 09:48:59;;;;;;;7.20;5.50;;;;;;;;;;5042880;28;20042;-74
2022/09/06 09:51:27;;;;;;;9.45;6.80;;;;;;;;;;5041359;28;20072;-75
2022/09/06 09:54:02;;;;;;;9.10;6.00;;;;;;;;;;5046602;28;20061;-76
2022/09/06 09:56:45;;;;;;;10.38;5.80;;;;;;;;;;5039815;28;20053;-76
2022/09/06 09:59:20;;;;;;;11.80;6.72;;;;;;;;;;5041840;28;20060;-75
2022/09/06 10:01:47;;;;;;;10.10;6.32;;;;;;;;;;5042576;28;20053;-75
2022/09/06 10:04:28;;;;;;;9.80;5.63;;;;;;;;;;5049892;28;20060;-74
2022/09/06 10:07:19;;;;;;;6.65;5.00;;;;;;;;;;5041535;28;20054;-74
2022/09/06 10:09:48;;;;;;;7.70;4.10;;;;;;;;;;5044013;28;20037;-74
2022/09/06 10:12:17;;;;;;;7.82;4.35;;;;;;;;;;5043631;28;21635;-74
2022/09/06 10:14:47;;;;;;;6.60;4.00;;;;;;;;;;5042527;28;20064;-75
2022/09/06 10:17:18;;;;;;;8.95;4.03;;;;;;;;;;5038749;28;20050;-75
2022/09/06 10:19:46;;;;;;;10.80;4.53;;;;;;;;;;5043003;28;20129;-76
2022/09/06 10:22:30;;;;;;;7.07;4.65;;;;;;;;;;5043978;28;20060;-75
2022/09/06 10:24:57;;;;;;;7.57;4.65;;;;;;;;;;5045689;28;20156;-74
2022/09/06 10:27:28;;;;;;;7.55;4.50;;;;;;;;;;5062820;28;20050;-75
2022/09/06 10:30:02;;;;;;;8.48;4.35;;;;;;;;;;5044247;28;21866;-74
2022/09/06 10:32:38;;;;;;;6.30;4.05;;;;;;;;;;5048785;28;20049;-73
2022/09/06 10:35:12;;;;;;;8.30;3.33;;;;;;;;;;5042921;28;20116;-75
2022/09/06 10:37:58;;;;;;;5.45;3.30;;;;;;;;;;5044392;28;20129;-74
2022/09/06 10:40:40;;;;;;;5.18;3.20;;;;;;;;;;5076976;28;20061;-75
2022/09/06 10:43:09;;;;;;;6.80;3.40;;;;;;;;;;5085151;28;20053;-75
2022/09/06 10:45:45;;;;;;;5.63;2.88;;;;;;;;;;5072921;28;20079;-75
2022/09/06 10:48:35;;;;;;;7.35;2.42;;;;;;;;;;5083013;28;20053;-74
2022/09/06 10:51:05;;;;;;;7.30;3.13;;;;;;;;;;5083130;28;20052;-74
2022/09/06 10:53:43;;;;;;;5.30;3.05;;;;;;;;;;5084131;28;20055;-76
2022/09/06 10:56:12;;;;;;;6.05;3.10;;;;;;;;;;5085814;28;20051;-75
2022/09/06 10:58:42;;;;;;;4.15;2.70;;;;;;;;;;5085391;28;20063;-73
2022/09/06 11:01:35;;;;;;;7.32;3.05;;;;;;;;;;5082828;28;20063;-74
2022/09/06 11:04:04;;;;;;;7.07;3.40;;;;;;;;;;5081223;28;20052;-76
2022/09/06 11:06:44;;;;;;;7.45;3.28;;;;;;;;;;5081083;28;20846;-74
2022/09/06 11:09:22;;;;;;;5.63;2.88;;;;;;;;;;5085943;28;20059;-75
2022/09/06 11:11:54;;;;;;;8.75;3.42;;;;;;;;;;5085023;28;20055;-74
2022/09/06 11:14:23;;;;;;;7.63;3.60;;;;;;;;;;5088091;28;20885;-74
2022/09/06 11:16:57;;;;;;;10.70;3.25;;;;;;;;;;5081850;28;20049;-73
2022/09/06 11:19:28;;;;;;;6.97;3.60;;;;;;;;;;5085459;28;20052;-74
2022/09/06 11:22:14;;;;;;;8.43;2.95;;;;;;;;;;5085058;28;20055;-74
2022/09/06 11:24:44;;;;;;;5.05;2.40;;;;;;;;;;5068747;28;20048;-74
2022/09/06 11:27:16;;;;;;;6.07;2.60;;;;;;;;;;5081608;28;20106;-74
2022/09/06 11:29:44;;;;;;;4.60;2.90;;;;;;;;;;5083555;28;20053;-74
2022/09/06 11:32:32;;;;;;;6.75;3.03;;;;;;;;;;5084816;28;20044;-74
2022/09/06 11:35:00;;;;;;;6.65;2.95;;;;;;;;;;5080026;28;20191;-75
2022/09/06 11:37:31;;;;;;;6.43;3.22;;;;;;;;;;5084187;28;20136;-74
2022/09/06 11:40:24;;;;;;;9.80;3.38;;;;;;;;;;5085107;28;20055;-74
2022/09/06 11:42:51;;;;;;;5.30;3.05;;;;;;;;;;5073644;28;20088;-74
2022/09/06 11:45:22;;;;;;;4.03;2.70;;;;;;;;;;5070514;28;20131;-74
2022/09/06 11:47:50;;;;;;;4.60;2.47;;;;;;;;;;5066290;28;20052;-74
2022/09/06 11:50:37;;;;;;;5.07;2.80;;;;;;;;;;5083945;28;20048;-72
2022/09/06 11:53:18;;;;;;;4.38;2.70;;;;;;;;;;5087818;28;20055;-75
2022/09/06 11:55:50;;;;;;;6.25;3.55;;;;;;;;;;5065692;28;20098;-74
2022/09/06 11:58:17;;;;;;;7.10;3.80;;;;;;;;;;5089471;28;20053;-73
2022/09/06 12:00:45;;;;;;;9.05;4.30;;;;;;;;;;5088000;28;20127;-73
2022/09/06 12:03:42;;;;;;;6.65;4.00;;;;;;;;;;5085213;28;20049;-74
2022/09/06 12:06:40;;;;;;;6.72;4.43;;;;;;;;;;5080644;28;20052;-74
2022/09/06 12:09:27;;;;;;;8.02;4.20;;;;;;;;;;5088328;28;20058;-73
2022/09/06 12:11:55;;;;;;;6.97;4.10;;;;;;;;;;5086764;28;20040;-74
2022/09/06 12:14:39;;;;;;;12.82;4.97;;;;;;;;;;5083125;28;20049;-75
2022/09/06 12:17:07;;;;;;;11.45;5.10;;;;;;;;;;5087687;28;20045;-73
2022/09/06 12:19:47;;;;;;;7.18;4.78;;;;;;;;;;5090381;28;20044;-74
2022/09/06 12:22:26;;;;;;;8.85;5.03;;;;;;;;;;5094557;28;20942;-74
2022/09/06 12:25:00;;;;;;;10.73;5.28;;;;;;;;;;5088440;28;20618;-73
2022/09/06 12:27:38;;;;;;;13.02;5.85;;;;;;;;;;5088814;28;20059;-73
2022/09/06 12:30:10;;;;;;;8.68;5.68;;;;;;;;;;5087810;28;20049;-74
2022/09/06 12:32:38;;;;;;;11.43;5.35;;;;;;;;;;5090485;28;20849;-74
2022/09/06 12:35:11;;;;;;;11.20;6.18;;;;;;;;;;5091642;28;20121;-74
2022/09/06 12:38:00;;;;;;;8.15;5.80;;;;;;;;;;5085795;28;20064;-74
2022/09/06 12:40:29;;;;;;;9.38;5.05;;;;;;;;;;5082545;28;20075;-75
2022/09/06 12:42:56;;;;;;;8.18;4.80;;;;;;;;;;5094769;28;20195;-75
2022/09/06 12:45:24;;;;;;;11.13;5.60;;;;;;;;;;5089127;28;20049;-74
2022/09/06 12:48:11;;;;;;;8.23;5.30;;;;;;;;;;5088348;28;20135;-73
2022/09/06 12:50:39;;;;;;;8.75;4.90;;;;;;;;;;5091385;28;20048;-73
2022/09/06 12:53:24;;;;;;;9.20;5.13;;;;;;;;;;5087593;28;20960;-75
2022/09/06 12:56:02;;;;;;;9.05;4.55;;;;;;;;;;5088524;28;20044;-73
2022/09/06 12:58:29;;;;;;;8.55;4.30;;;;;;;;;;5083884;28;20136;-73
2022/09/06 13:00:58;;;;;;;11.52;5.72;;;;;;;;;;5088730;28;20048;-75
2022/09/06 13:03:38;;;;;;;8.48;5.13;;;;;;;;;;5074560;28;20053;-73
2022/09/06 13:06:06;;;;;;;9.13;4.65;;;;;;;;;;5088731;28;20127;-74
2022/09/06 13:08:36;;;;;;;10.45;4.32;;;;;;;;;;5087948;28;20049;-74
2022/09/06 13:11:04;;;;;;;10.73;4.50;;;;;;;;;;5083993;28;20048;-74
2022/09/06 13:13:32;;;;;;;8.65;4.60;;;;;;;;;;5088493;28;20051;-74
2022/09/06 13:15:59;;;;;;;8.80;4.78;;;;;;;;;;5085717;28;20048;-74
2022/09/06 13:18:36;;;;;;;7.03;4.53;;;;;;;;;;5086326;28;20049;-72
2022/09/06 13:21:07;;;;;;;8.77;4.50;;;;;;;;;;5089878;28;20675;-73
2022/09/06 13:24:02;;;;;;;8.95;4.40;;;;;;;;;;5084478;28;20064;-73
2022/09/06 13:26:39;;;;;;;9.38;4.75;;;;;;;;;;5092212;28;20037;-74
2022/09/06 13:29:09;;;;;;;11.40;4.80;;;;;;;;;;5096033;28;20049;-75
2022/09/06 13:31:37;;;;;;;9.50;4.75;;;;;;;;;;5089306;28;20048;-73
2022/09/06 13:34:05;;;;;;;8.10;5.00;;;;;;;;;;5091630;28;20131;-74
2022/09/06 13:36:32;;;;;;;6.45;3.90;;;;;;;;;;5092122;28;20049;-74
2022/09/06 13:39:02;;;;;;;9.43;4.45;;;;;;;;;;5089886;28;20167;-74
2022/09/06 13:41:29;;;;;;;8.07;4.47;;;;;;;;;;5085369;28;20489;-72
2022/09/06 13:43:57;;;;;;;9.25;4.43;;;;;;;;;;5086275;28;20053;-73
2022/09/06 13:46:24;;;;;;;8.55;4.38;;;;;;;;;;5085434;28;20049;-73
2022/09/06 13:48:55;;;;;;;8.13;4.25;;;;;;;;;;5088786;28;20053;-74
2022/09/06 13:51:23;;;;;;;6.55;3.97;;;;;;;;;;5072083;28;20049;-73
2022/09/06 13:53:50;;;;;;;8.68;3.90;;;;;;;;;;5084138;28;20084;-74
2022/09/06 13:56:17;;;;;;;8.15;3.28;;;;;;;;;;5086992;28;20052;-73
2022/09/06 13:58:44;;;;;;;5.13;2.97;;;;;;;;;;5084186;28;20045;-74
2022/09/06 14:01:13;;;;;;;7.80;3.63;;;;;;;;;;5081814;28;20040;-74
2022/09/06 14:03:41;;;;;;;8.82;3.10;;;;;;;;;;5086289;28;20098;-74
2022/09/06 14:06:09;;;;;;;6.50;3.17;;;;;;;;;;5081390;28;20144;-73
2022/09/06 14:08:38;;;;;;;6.00;2.25;;;;;;;;;;5086442;28;20940;-75
2022/09/06 14:11:25;;;;;;;4.40;2.03;;;;;;;;;;5086456;28;20056;-73
2022/09/06 14:13:52;;;;;;;3.28;1.88;;;;;;;;;;5084578;28;20059;-73
2022/09/06 14:16:19;;;;;;;4.75;2.13;;;;;;;;;;5083322;28;20055;-76
2022/09/06 14:18:47;;;;;;;7.05;2.05;;;;;;;;;;5081962;28;20080;-74
2022/09/06 14:21:15;;;;;;;5.07;2.00;;;;;;;;;;5085233;28;21213;-73
2022/09/06 14:23:42;;;;;;;3.83;1.60;;;;;;;;;;5087388;28;20068;-74
2022/09/06 14:26:14;;;;;;;4.32;1.83;;;;;;;;;;5087943;28;20828;-74
2022/09/06 14:28:41;;;;;;;7.50;1.48;;;;;;;;;;5085722;28;20052;-74
2022/09/06 14:31:12;;;;;;;4.93;2.10;;;;;;;;;;5088704;28;20049;-75
2022/09/06 14:33:39;;;;;;;3.00;1.75;;;;;;;;;;5069993;28;20033;-75
2022/09/06 14:36:07;;;;;;;6.28;1.77;;;;;;;;;;5083856;28;20053;-75
2022/09/06 14:38:35;;;;;;;6.22;2.08;;;;;;;;;;5088106;28;20048;-74
2022/09/06 14:41:03;;;;;;;4.38;1.80;;;;;;;;;;5081890;28;20061;-74
2022/09/06 14:43:31;;;;;;;9.50;2.13;;;;;;;;;;5085567;28;20053;-74
2022/09/06 14:46:02;;;;;;;5.50;2.08;;;;;;;;;;5085346;28;20049;-74
2022/09/06 14:48:30;;;;;;;4.47;2.33;;;;;;;;;;5085202;28;20167;-74
2022/09/06 14:50:58;;;;;;;8.77;2.60;;;;;;;;;;5087431;28;20055;-75
2022/09/06 14:53:25;;;;;;;5.88;2.22;;;;;;;;;;5086262;28;20088;-73
2022/09/06 14:56:08;;;;;;;5.60;3.10;;;;;;;;;;5089374;28;20028;-75
2022/09/06 14:58:36;;;;;;;6.63;2.53;;;;;;;;;;5085895;28;20048;-73